Time;durP1;ratioP1;P1;durP2;ratioP2;P2;SDS_P1;SDS_P2;PMS_P1;PMS_P2;Temp;Humidity;BMP_temperature;BMP_pressure;BME280_temperature;BME280_humidity;BME280_pressure;Samples;Min_cycle;Max_cycle;Signal;HPM_P1;HPM_P2
2021/10/02 00:31:32;;;;;;;10.30;5.88;;;;;;;;;;5014646;28;20507;-88
2021/10/02 00:46:15;;;;;;;9.45;5.85;;;;;;;;;;5007349;28;20022;-88
2021/10/02 00:49:00;;;;;;;10.77;6.30;;;;;;;;;;5008822;28;20157;-88
2021/10/02 00:51:45;;;;;;;9.65;5.93;;;;;;;;;;5008887;28;20077;-87
2021/10/02 00:54:30;;;;;;;10.05;5.55;;;;;;;;;;5007491;28;20038;-86
2021/10/02 00:57:16;;;;;;;9.88;5.57;;;;;;;;;;5008335;28;20065;-87
2021/10/02 01:00:02;;;;;;;10.27;6.20;;;;;;;;;;5005176;28;20036;-87
2021/10/02 01:02:51;;;;;;;7.72;5.82;;;;;;;;;;5008104;28;20477;-86
2021/10/02 01:05:42;;;;;;;8.95;6.00;;;;;;;;;;5003737;28;20023;-87
2021/10/02 01:08:46;;;;;;;9.75;6.13;;;;;;;;;;5004583;28;20026;-86
2021/10/02 01:11:32;;;;;;;10.23;5.60;;;;;;;;;;5004809;28;20030;-86
2021/10/02 01:14:36;;;;;;;9.48;5.57;;;;;;;;;;5005211;28;20157;-87
2021/10/02 01:17:34;;;;;;;7.80;5.07;;;;;;;;;;5004517;28;20030;-87
2021/10/02 01:20:45;;;;;;;9.30;5.40;;;;;;;;;;5007619;28;20026;-87
2021/10/02 01:23:49;;;;;;;8.10;5.55;;;;;;;;;;4989417;28;20080;-86
2021/10/02 01:26:43;;;;;;;8.25;5.20;;;;;;;;;;4993271;28;20033;-87
2021/10/02 01:29:30;;;;;;;9.35;5.43;;;;;;;;;;5007505;28;20067;-86
2021/10/02 01:32:23;;;;;;;8.38;5.45;;;;;;;;;;5016992;28;20036;-86
2021/10/02 01:47:19;;;;;;;8.20;5.47;;;;;;;;;;5020019;28;20029;-86
2021/10/02 01:50:06;;;;;;;9.93;5.20;;;;;;;;;;5006456;28;20092;-86
2021/10/02 01:52:52;;;;;;;8.50;5.70;;;;;;;;;;5002898;28;20061;-87
2021/10/02 01:55:40;;;;;;;9.70;5.38;;;;;;;;;;4993472;28;20030;-86
2021/10/02 01:58:26;;;;;;;9.07;5.30;;;;;;;;;;5009975;28;20221;-87
2021/10/02 02:01:11;;;;;;;9.88;4.95;;;;;;;;;;5010235;28;20435;-87
2021/10/02 02:03:58;;;;;;;11.98;6.15;;;;;;;;;;5023101;28;20087;-86
2021/10/02 02:06:44;;;;;;;7.65;5.00;;;;;;;;;;5010817;28;20145;-87
2021/10/02 02:09:37;;;;;;;7.68;4.95;;;;;;;;;;5010202;28;20038;-87
2021/10/02 02:12:23;;;;;;;9.05;5.88;;;;;;;;;;5011630;28;20069;-87
2021/10/02 02:15:09;;;;;;;11.07;5.28;;;;;;;;;;5004955;28;20479;-88
2021/10/02 02:17:57;;;;;;;9.43;5.43;;;;;;;;;;5009327;28;20479;-88
2021/10/02 02:20:43;;;;;;;8.90;5.40;;;;;;;;;;5011102;28;20476;-88
2021/10/02 02:23:29;;;;;;;8.27;4.90;;;;;;;;;;5003791;28;20046;-87
2021/10/02 02:26:14;;;;;;;8.82;5.60;;;;;;;;;;5021037;28;20036;-87
2021/10/02 02:29:00;;;;;;;9.95;5.43;;;;;;;;;;5018635;28;20044;-86
2021/10/02 02:31:46;;;;;;;8.35;4.90;;;;;;;;;;5010125;28;20026;-86
2021/10/02 02:34:31;;;;;;;10.60;6.68;;;;;;;;;;5004435;28;20594;-86
2021/10/02 02:37:16;;;;;;;7.65;4.55;;;;;;;;;;5009635;28;20333;-86
2021/10/02 02:40:03;;;;;;;8.27;5.38;;;;;;;;;;5008055;28;20018;-86
2021/10/02 02:42:49;;;;;;;7.90;5.25;;;;;;;;;;5009000;28;20022;-86
2021/10/02 02:45:34;;;;;;;11.68;6.07;;;;;;;;;;5006811;28;20026;-86
2021/10/02 02:48:22;;;;;;;10.77;6.38;;;;;;;;;;5009747;28;20018;-86
2021/10/02 02:51:09;;;;;;;11.00;6.07;;;;;;;;;;5008090;28;20041;-85
2021/10/02 02:54:02;;;;;;;10.43;6.15;;;;;;;;;;5009741;28;20026;-87
2021/10/02 02:56:50;;;;;;;9.85;5.95;;;;;;;;;;5008704;28;20172;-87
2021/10/02 02:59:38;;;;;;;9.07;5.45;;;;;;;;;;5008827;28;20070;-87
2021/10/02 03:02:23;;;;;;;7.85;5.22;;;;;;;;;;5009745;28;20542;-86
2021/10/02 03:05:09;;;;;;;8.98;5.68;;;;;;;;;;5007833;28;20014;-87
2021/10/02 03:08:01;;;;;;;11.30;5.85;;;;;;;;;;5003733;28;20041;-87
2021/10/02 03:10:47;;;;;;;8.23;5.32;;;;;;;;;;5004151;28;20018;-86
2021/10/02 03:13:36;;;;;;;7.15;5.20;;;;;;;;;;5006415;28;20102;-86
2021/10/02 03:16:23;;;;;;;7.15;5.38;;;;;;;;;;5001299;28;20026;-86
2021/10/02 03:19:09;;;;;;;10.02;5.05;;;;;;;;;;5000619;28;20538;-86
2021/10/02 03:21:55;;;;;;;6.93;4.85;;;;;;;;;;4997867;28;20030;-86
2021/10/02 03:24:41;;;;;;;8.18;5.30;;;;;;;;;;4996944;28;20057;-87
2021/10/02 03:27:27;;;;;;;10.65;5.20;;;;;;;;;;5005796;28;20507;-87
2021/10/02 03:30:13;;;;;;;9.02;5.47;;;;;;;;;;5005278;28;20029;-88
2021/10/02 03:32:58;;;;;;;9.77;5.38;;;;;;;;;;5003060;28;20531;-88
2021/10/02 03:35:46;;;;;;;9.93;5.65;;;;;;;;;;5004993;28;20084;-87
2021/10/02 03:38:32;;;;;;;8.20;4.93;;;;;;;;;;5004536;28;20026;-86
2021/10/02 03:41:17;;;;;;;7.88;4.90;;;;;;;;;;4997071;28;20492;-86
2021/10/02 03:44:03;;;;;;;9.77;5.60;;;;;;;;;;5004047;28;20030;-86
2021/10/02 03:46:48;;;;;;;8.25;5.50;;;;;;;;;;5000052;28;20081;-87
2021/10/02 03:49:33;;;;;;;8.38;5.45;;;;;;;;;;5001644;28;20057;-86
2021/10/02 03:52:20;;;;;;;9.57;6.20;;;;;;;;;;4999411;28;20033;-87
2021/10/02 03:55:07;;;;;;;9.82;5.85;;;;;;;;;;5000832;28;20049;-88
2021/10/02 03:57:52;;;;;;;9.43;5.97;;;;;;;;;;5001451;28;20033;-87
2021/10/02 04:00:40;;;;;;;9.63;5.10;;;;;;;;;;5000572;28;20025;-87
2021/10/02 04:03:26;;;;;;;8.73;5.72;;;;;;;;;;4999661;28;20119;-87
2021/10/02 04:06:12;;;;;;;8.23;5.45;;;;;;;;;;5004696;28;20021;-89
2021/10/02 04:08:58;;;;;;;10.52;5.75;;;;;;;;;;5002530;28;20029;-86
2021/10/02 04:11:44;;;;;;;7.78;5.07;;;;;;;;;;5003210;28;20025;-86
2021/10/02 04:14:29;;;;;;;8.45;5.40;;;;;;;;;;5014213;28;20093;-87
2021/10/02 04:17:15;;;;;;;9.05;5.45;;;;;;;;;;5005941;28;20029;-87
2021/10/02 04:20:01;;;;;;;8.90;5.97;;;;;;;;;;5002227;28;20029;-86
2021/10/02 04:22:46;;;;;;;10.10;5.82;;;;;;;;;;5002294;28;20022;-87
2021/10/02 04:25:32;;;;;;;8.55;5.57;;;;;;;;;;5004551;28;20171;-87
2021/10/02 04:28:17;;;;;;;11.05;6.07;;;;;;;;;;5001112;28;20021;-86
2021/10/02 04:31:04;;;;;;;8.23;5.45;;;;;;;;;;5003455;28;20055;-86
2021/10/02 04:33:49;;;;;;;9.57;5.82;;;;;;;;;;4997560;28;20041;-87
2021/10/02 04:36:34;;;;;;;10.15;6.57;;;;;;;;;;4998913;28;20029;-85
2021/10/02 04:39:19;;;;;;;9.45;5.97;;;;;;;;;;4989214;28;20108;-88
2021/10/02 04:42:05;;;;;;;9.38;6.03;;;;;;;;;;4997766;28;20018;-87
2021/10/02 04:44:50;;;;;;;7.82;5.18;;;;;;;;;;5000527;28;20125;-88
2021/10/02 04:47:36;;;;;;;7.20;4.97;;;;;;;;;;5002208;28;20028;-86
2021/10/02 04:50:21;;;;;;;9.98;5.88;;;;;;;;;;5002902;28;20057;-87
2021/10/02 04:53:06;;;;;;;13.52;6.68;;;;;;;;;;5002245;28;20113;-87
2021/10/02 04:55:55;;;;;;;7.97;5.68;;;;;;;;;;5003132;28;20565;-87
2021/10/02 04:58:40;;;;;;;9.18;5.47;;;;;;;;;;5002102;28;20388;-88
2021/10/02 05:01:26;;;;;;;9.48;5.85;;;;;;;;;;5005135;28;20100;-87
2021/10/02 05:04:11;;;;;;;9.55;5.60;;;;;;;;;;4997328;28;20026;-88
2021/10/02 05:06:56;;;;;;;11.25;6.13;;;;;;;;;;5000895;28;20084;-88
2021/10/02 05:09:42;;;;;;;8.80;5.05;;;;;;;;;;5003437;28;20399;-87
2021/10/02 05:12:27;;;;;;;8.50;5.15;;;;;;;;;;4997106;28;20030;-87
2021/10/02 05:15:12;;;;;;;8.98;5.90;;;;;;;;;;4983765;28;20128;-86
2021/10/02 05:17:58;;;;;;;8.68;6.03;;;;;;;;;;4993987;28;20081;-87
2021/10/02 05:20:43;;;;;;;8.13;5.30;;;;;;;;;;4988294;28;20408;-87
2021/10/02 05:23:28;;;;;;;10.73;5.43;;;;;;;;;;4996087;28;20026;-87
2021/10/02 05:26:14;;;;;;;9.02;5.90;;;;;;;;;;5000325;28;20033;-87
2021/10/02 05:28:59;;;;;;;9.63;6.18;;;;;;;;;;4997375;28;20026;-87
2021/10/02 05:31:44;;;;;;;10.10;5.82;;;;;;;;;;5000304;28;20022;-87
2021/10/02 05:34:31;;;;;;;7.25;5.60;;;;;;;;;;4999860;28;20044;-86
2021/10/02 05:37:16;;;;;;;8.07;5.78;;;;;;;;;;4994725;28;20380;-87
2021/10/02 05:40:02;;;;;;;8.68;5.78;;;;;;;;;;4996716;28;20014;-86
2021/10/02 05:42:47;;;;;;;7.95;5.47;;;;;;;;;;4998549;28;20103;-86
2021/10/02 05:45:33;;;;;;;8.82;6.28;;;;;;;;;;4996435;28;20048;-88
2021/10/02 05:48:18;;;;;;;10.13;5.75;;;;;;;;;;4977293;28;20023;-88
2021/10/02 05:51:04;;;;;;;10.88;5.88;;;;;;;;;;4992381;28;20111;-88
2021/10/02 05:53:52;;;;;;;9.32;5.95;;;;;;;;;;5007121;28;20030;-88
2021/10/02 05:56:39;;;;;;;11.57;6.63;;;;;;;;;;4994459;28;20018;-87
2021/10/02 05:59:25;;;;;;;8.18;5.32;;;;;;;;;;4999051;28;20022;-87
2021/10/02 06:02:10;;;;;;;10.15;5.47;;;;;;;;;;4996895;28;20050;-87
2021/10/02 06:04:55;;;;;;;10.50;5.85;;;;;;;;;;4998371;28;20025;-87
2021/10/02 06:07:40;;;;;;;9.60;5.63;;;;;;;;;;5001231;28;20034;-88
2021/10/02 06:10:26;;;;;;;9.18;5.95;;;;;;;;;;5004112;28;20030;-87
2021/10/02 06:13:11;;;;;;;10.40;5.78;;;;;;;;;;5001655;28;20029;-87
2021/10/02 06:15:57;;;;;;;9.38;5.88;;;;;;;;;;5002222;28;20040;-89
2021/10/02 06:18:42;;;;;;;7.78;5.47;;;;;;;;;;5001444;28;20021;-87
2021/10/02 06:21:27;;;;;;;7.50;5.30;;;;;;;;;;5003935;28;20030;-87
2021/10/02 06:24:14;;;;;;;9.20;5.60;;;;;;;;;;4996370;28;20026;-87
2021/10/02 06:26:59;;;;;;;10.85;6.15;;;;;;;;;;4998141;28;20018;-86
2021/10/02 06:29:44;;;;;;;8.75;5.93;;;;;;;;;;5002642;28;20061;-87
2021/10/02 06:32:30;;;;;;;8.52;6.00;;;;;;;;;;5001081;28;20030;-87
2021/10/02 06:35:15;;;;;;;10.27;5.88;;;;;;;;;;4998204;28;20437;-87
2021/10/02 06:38:03;;;;;;;13.65;6.15;;;;;;;;;;4998206;28;20014;-88
2021/10/02 06:40:49;;;;;;;11.93;6.10;;;;;;;;;;4998578;28;20028;-87
2021/10/02 06:43:34;;;;;;;10.88;6.95;;;;;;;;;;5005140;28;20068;-87
2021/10/02 06:46:20;;;;;;;8.40;6.20;;;;;;;;;;5001886;28;20018;-87
2021/10/02 06:49:05;;;;;;;10.63;6.40;;;;;;;;;;5004537;28;20503;-87
2021/10/02 06:51:50;;;;;;;8.60;5.97;;;;;;;;;;5007755;28;20125;-87
2021/10/02 06:54:35;;;;;;;10.57;6.65;;;;;;;;;;5005155;28;20254;-87
2021/10/02 06:57:21;;;;;;;11.00;6.50;;;;;;;;;;5004590;28;20018;-86
2021/10/02 07:00:06;;;;;;;10.52;6.70;;;;;;;;;;4997690;28;20431;-87
2021/10/02 07:02:52;;;;;;;10.20;5.97;;;;;;;;;;4999830;28;20068;-87
2021/10/02 07:05:37;;;;;;;10.90;6.63;;;;;;;;;;5008137;28;20025;-85
2021/10/02 07:08:22;;;;;;;8.60;5.78;;;;;;;;;;5007200;28;20045;-87
2021/10/02 07:11:07;;;;;;;7.88;5.70;;;;;;;;;;5003062;28;20537;-86
2021/10/02 07:13:53;;;;;;;11.40;6.22;;;;;;;;;;4991333;28;20061;-86
2021/10/02 07:16:38;;;;;;;9.95;6.45;;;;;;;;;;5004018;28;20209;-87
2021/10/02 07:19:23;;;;;;;11.73;6.18;;;;;;;;;;4999896;28;20495;-86
2021/10/02 07:22:09;;;;;;;9.65;6.05;;;;;;;;;;5001162;28;20026;-86
2021/10/02 07:24:54;;;;;;;10.77;5.97;;;;;;;;;;5002620;28;20032;-87
2021/10/02 07:27:40;;;;;;;13.23;6.82;;;;;;;;;;5001971;28;20025;-85
2021/10/02 07:30:25;;;;;;;11.18;5.65;;;;;;;;;;4995059;28;20112;-86
2021/10/02 07:33:10;;;;;;;8.90;5.28;;;;;;;;;;5005645;28;20489;-86
2021/10/02 07:35:56;;;;;;;11.80;6.15;;;;;;;;;;5000717;28;20548;-86
2021/10/02 07:38:41;;;;;;;10.10;5.97;;;;;;;;;;4990262;28;20528;-88
2021/10/02 07:41:27;;;;;;;10.07;6.13;;;;;;;;;;5004083;28;20064;-86
2021/10/02 07:44:12;;;;;;;12.27;6.28;;;;;;;;;;5003058;28;20097;-87
2021/10/02 07:47:01;;;;;;;8.82;5.18;;;;;;;;;;4999052;28;20619;-86
2021/10/02 07:49:48;;;;;;;8.05;5.20;;;;;;;;;;5000712;28;20053;-84
2021/10/02 07:52:33;;;;;;;10.35;5.82;;;;;;;;;;4998204;28;20034;-83
2021/10/02 07:55:19;;;;;;;7.30;4.55;;;;;;;;;;4999810;28;20118;-82
2021/10/02 07:58:04;;;;;;;9.10;5.57;;;;;;;;;;5004297;28;20026;-83
2021/10/02 08:00:52;;;;;;;9.02;5.10;;;;;;;;;;5002125;28;20496;-83
2021/10/02 08:03:37;;;;;;;9.15;5.20;;;;;;;;;;5002403;28;20022;-85
2021/10/02 08:06:24;;;;;;;8.23;5.03;;;;;;;;;;5002556;28;20028;-83
2021/10/02 08:09:10;;;;;;;8.32;4.88;;;;;;;;;;5002030;28;20040;-86
2021/10/02 08:11:55;;;;;;;11.75;5.07;;;;;;;;;;4996008;28;20026;-86
2021/10/02 08:14:40;;;;;;;9.30;5.18;;;;;;;;;;5001240;28;20026;-77
2021/10/02 08:17:27;;;;;;;6.80;4.55;;;;;;;;;;4993270;28;20688;-78
2021/10/02 08:20:15;;;;;;;8.50;4.88;;;;;;;;;;4985079;28;20033;-77
2021/10/02 08:23:00;;;;;;;7.50;4.25;;;;;;;;;;5002398;28;20554;-77
2021/10/02 08:25:50;;;;;;;8.95;5.28;;;;;;;;;;5005037;28;20022;-80
2021/10/02 08:28:35;;;;;;;9.73;4.05;;;;;;;;;;4995803;28;20022;-79
2021/10/02 08:31:22;;;;;;;10.05;5.30;;;;;;;;;;5000582;28;20117;-79
2021/10/02 08:34:08;;;;;;;6.05;4.18;;;;;;;;;;4999833;28;20113;-79
2021/10/02 08:36:53;;;;;;;6.28;3.97;;;;;;;;;;5000106;28;20048;-79
2021/10/02 08:39:38;;;;;;;6.05;3.65;;;;;;;;;;5003464;28;20033;-80
2021/10/02 08:42:24;;;;;;;6.55;3.95;;;;;;;;;;5002933;28;20112;-79
2021/10/02 08:45:10;;;;;;;4.57;3.13;;;;;;;;;;4982156;28;20508;-80
2021/10/02 08:47:56;;;;;;;7.97;3.53;;;;;;;;;;4999725;28;20057;-80
2021/10/02 08:50:42;;;;;;;4.30;2.92;;;;;;;;;;5004022;28;20077;-81
2021/10/02 08:53:29;;;;;;;5.43;3.35;;;;;;;;;;5000677;28;20077;-82
2021/10/02 08:56:14;;;;;;;8.73;3.60;;;;;;;;;;4996669;28;20032;-80
2021/10/02 08:59:00;;;;;;;4.65;3.30;;;;;;;;;;5001948;28;20060;-81
2021/10/02 09:01:46;;;;;;;7.75;3.30;;;;;;;;;;4998508;28;20022;-80
2021/10/02 09:04:31;;;;;;;5.43;3.03;;;;;;;;;;5001673;28;20087;-80
2021/10/02 09:07:21;;;;;;;5.03;2.97;;;;;;;;;;5000604;28;20026;-83
2021/10/02 09:10:07;;;;;;;5.95;3.42;;;;;;;;;;4999359;28;20125;-80
2021/10/02 09:12:52;;;;;;;5.05;2.80;;;;;;;;;;4997515;28;20022;-80
2021/10/02 09:15:37;;;;;;;5.18;2.92;;;;;;;;;;5000504;28;20033;-80
2021/10/02 09:18:23;;;;;;;5.00;2.80;;;;;;;;;;4998061;28;20408;-79
2021/10/02 09:21:09;;;;;;;10.35;3.63;;;;;;;;;;4996600;28;20118;-80
2021/10/02 09:23:56;;;;;;;5.15;2.65;;;;;;;;;;4999048;28;20422;-80
2021/10/02 09:26:44;;;;;;;4.55;2.72;;;;;;;;;;4996882;28;20029;-78
2021/10/02 09:29:34;;;;;;;4.63;2.40;;;;;;;;;;4995354;28;20370;-77
2021/10/02 09:32:21;;;;;;;3.55;2.50;;;;;;;;;;5001180;28;20029;-79
2021/10/02 09:35:07;;;;;;;3.25;2.30;;;;;;;;;;5000629;28;20030;-78
2021/10/02 09:37:53;;;;;;;5.43;2.63;;;;;;;;;;5001156;28;20583;-78
2021/10/02 09:40:39;;;;;;;7.25;2.47;;;;;;;;;;5002302;28;20129;-79
2021/10/02 09:43:26;;;;;;;4.38;2.17;;;;;;;;;;5001752;28;20034;-79
2021/10/02 09:46:12;;;;;;;3.95;2.60;;;;;;;;;;4999665;28;20083;-80
2021/10/02 09:48:57;;;;;;;5.38;2.58;;;;;;;;;;5001161;28;20025;-78
2021/10/02 09:51:43;;;;;;;4.88;2.70;;;;;;;;;;4995921;28;20793;-80
2021/10/02 09:54:38;;;;;;;4.30;2.30;;;;;;;;;;5001064;28;20364;-78
2021/10/02 09:57:24;;;;;;;3.40;2.05;;;;;;;;;;4998464;28;20057;-81
2021/10/02 10:00:10;;;;;;;4.93;2.85;;;;;;;;;;4996053;28;20118;-81
2021/10/02 10:02:56;;;;;;;4.15;2.60;;;;;;;;;;4995426;28;20029;-81
2021/10/02 10:05:45;;;;;;;5.15;2.38;;;;;;;;;;4992479;28;20071;-84
2021/10/02 10:08:30;;;;;;;8.52;3.40;;;;;;;;;;4991872;28;20022;-79
2021/10/02 10:11:16;;;;;;;4.32;2.83;;;;;;;;;;4997673;28;20022;-82
2021/10/02 10:14:01;;;;;;;5.35;2.70;;;;;;;;;;4998859;28;20026;-82
2021/10/02 10:16:46;;;;;;;3.47;2.63;;;;;;;;;;5003284;28;20061;-84
2021/10/02 10:19:34;;;;;;;5.60;3.30;;;;;;;;;;5006819;28;20022;-84
2021/10/02 10:22:22;;;;;;;5.53;3.20;;;;;;;;;;5008349;28;20022;-82
2021/10/02 10:25:10;;;;;;;4.75;2.63;;;;;;;;;;5000424;28;20054;-81
2021/10/02 10:27:59;;;;;;;5.32;3.85;;;;;;;;;;4998832;28;20034;-80
2021/10/02 10:30:47;;;;;;;4.65;3.38;;;;;;;;;;5003500;28;20038;-82
2021/10/02 10:33:32;;;;;;;4.70;3.33;;;;;;;;;;5008007;28;20476;-80
2021/10/02 10:36:18;;;;;;;6.57;3.42;;;;;;;;;;5010351;28;20333;-82
2021/10/02 10:39:03;;;;;;;5.07;3.22;;;;;;;;;;4999817;28;20022;-81
2021/10/02 10:41:49;;;;;;;4.95;3.33;;;;;;;;;;5004006;28;20053;-79
2021/10/02 10:44:35;;;;;;;6.07;3.35;;;;;;;;;;4989925;28;20030;-78
2021/10/02 10:47:20;;;;;;;5.90;3.42;;;;;;;;;;5002314;28;20049;-78
2021/10/02 10:50:05;;;;;;;4.90;2.88;;;;;;;;;;4964988;28;1080230;-78
2021/10/02 10:52:51;;;;;;;4.22;3.10;;;;;;;;;;5002534;28;20488;-78
2021/10/02 10:55:53;;;;;;;5.85;2.97;;;;;;;;;;4999082;28;20033;-78
2021/10/02 10:58:39;;;;;;;5.55;3.22;;;;;;;;;;4994473;28;20131;-82
2021/10/02 11:01:36;;;;;;;4.25;3.28;;;;;;;;;;5001984;28;20072;-79
2021/10/02 11:04:38;;;;;;;7.05;3.95;;;;;;;;;;5001540;28;20038;-78
2021/10/02 11:07:43;;;;;;;5.82;3.28;;;;;;;;;;5005052;28;20492;-80
2021/10/02 11:10:40;;;;;;;6.30;3.42;;;;;;;;;;5003854;28;20037;-80
2021/10/02 11:13:29;;;;;;;5.10;3.42;;;;;;;;;;5004338;28;20030;-80
2021/10/02 11:16:33;;;;;;;7.07;3.17;;;;;;;;;;5005315;28;20051;-79
2021/10/02 11:19:29;;;;;;;6.82;4.07;;;;;;;;;;4997715;28;20029;-79
2021/10/02 11:22:36;;;;;;;5.32;3.45;;;;;;;;;;5003432;28;20901;-79
2021/10/02 11:25:23;;;;;;;4.47;3.30;;;;;;;;;;5001090;28;20099;-81
2021/10/02 11:28:20;;;;;;;6.20;3.40;;;;;;;;;;5002777;28;20044;-80
2021/10/02 11:31:17;;;;;;;9.55;3.83;;;;;;;;;;5015923;28;20022;-79
2021/10/02 11:34:02;;;;;;;12.70;5.18;;;;;;;;;;4996263;28;20220;-80
2021/10/02 11:36:55;;;;;;;14.48;4.68;;;;;;;;;;5001393;28;20029;-79
2021/10/02 11:39:40;;;;;;;6.22;3.22;;;;;;;;;;4998181;28;20369;-79
2021/10/02 11:42:25;;;;;;;4.38;2.92;;;;;;;;;;5001330;28;20108;-80
2021/10/02 11:45:11;;;;;;;21.60;13.63;;;;;;;;;;4994633;28;20030;-84
2021/10/02 11:48:09;;;;;;;6.80;3.08;;;;;;;;;;5003415;28;20033;-84
2021/10/02 11:51:13;;;;;;;7.33;4.00;;;;;;;;;;5003984;28;20061;-89
2021/10/02 11:54:09;;;;;;;14.80;8.43;;;;;;;;;;5016556;28;20049;-84
2021/10/02 11:57:07;;;;;;;5.68;3.53;;;;;;;;;;5001374;28;20038;-84
2021/10/02 11:59:52;;;;;;;22.05;13.13;;;;;;;;;;5004199;28;20036;-89
2021/10/02 12:02:43;;;;;;;19.80;11.77;;;;;;;;;;5004083;28;20165;-88
2021/10/02 12:05:29;;;;;;;14.93;8.00;;;;;;;;;;4998937;28;20392;-91
2021/10/02 12:08:15;;;;;;;6.45;3.55;;;;;;;;;;5002529;28;20401;-88
2021/10/02 12:11:11;;;;;;;6.72;4.07;;;;;;;;;;5000965;28;20034;-88
2021/10/02 12:13:57;;;;;;;6.93;3.95;;;;;;;;;;5011838;28;20671;-76
2021/10/02 12:16:43;;;;;;;6.03;3.47;;;;;;;;;;5000200;28;20030;-77
2021/10/02 12:19:30;;;;;;;6.40;3.50;;;;;;;;;;4997577;28;20057;-78
2021/10/02 12:22:15;;;;;;;7.07;4.40;;;;;;;;;;5012394;28;20109;-81
2021/10/02 12:25:00;;;;;;;8.35;4.25;;;;;;;;;;4994280;28;20026;-80
2021/10/02 12:27:46;;;;;;;9.63;4.72;;;;;;;;;;4995655;28;20037;-78
2021/10/02 12:30:49;;;;;;;5.78;3.13;;;;;;;;;;5000523;28;20033;-78
2021/10/02 12:33:35;;;;;;;7.07;3.63;;;;;;;;;;5001450;28;20022;-79
2021/10/02 12:36:40;;;;;;;7.10;4.38;;;;;;;;;;5001502;28;20014;-80
2021/10/02 12:39:30;;;;;;;3.90;3.00;;;;;;;;;;5005503;28;20022;-77
2021/10/02 12:42:23;;;;;;;5.93;3.83;;;;;;;;;;4995318;28;20041;-80
2021/10/02 12:45:12;;;;;;;5.55;3.70;;;;;;;;;;4997005;28;20433;-82
2021/10/02 12:48:03;;;;;;;;;;;;;;;;;;4998129;28;20149;-82
2021/10/02 12:50:52;;;;;;;7.60;3.95;;;;;;;;;;5002096;28;20075;-82
2021/10/02 12:53:37;;;;;;;5.03;3.72;;;;;;;;;;4999812;28;20029;-83
2021/10/02 12:56:22;;;;;;;6.82;3.65;;;;;;;;;;4996772;28;20148;-83
2021/10/02 12:59:14;;;;;;;4.30;2.78;;;;;;;;;;4993269;28;20030;-81
2021/10/02 13:02:00;;;;;;;8.45;3.95;;;;;;;;;;4998683;28;20026;-83
2021/10/02 13:04:46;;;;;;;6.38;3.47;;;;;;;;;;5001575;28;20076;-83
2021/10/02 13:07:34;;;;;;;4.95;3.10;;;;;;;;;;4984649;28;20038;-82
2021/10/02 13:10:19;;;;;;;5.88;3.03;;;;;;;;;;4997463;28;20529;-83
2021/10/02 13:13:11;;;;;;;4.00;2.95;;;;;;;;;;4995381;28;20021;-83
2021/10/02 13:15:57;;;;;;;4.65;3.35;;;;;;;;;;5000894;28;20075;-81
2021/10/02 13:18:44;;;;;;;4.07;2.97;;;;;;;;;;4996789;28;20736;-82
2021/10/02 13:21:29;;;;;;;7.70;3.60;;;;;;;;;;4997094;28;20096;-82
2021/10/02 13:24:14;;;;;;;5.00;3.28;;;;;;;;;;4996251;28;20082;-82
2021/10/02 13:27:06;;;;;;;4.97;3.08;;;;;;;;;;4999340;28;20068;-80
2021/10/02 13:30:00;;;;;;;6.72;3.53;;;;;;;;;;4998953;28;20029;-81
2021/10/02 13:33:06;;;;;;;5.80;3.35;;;;;;;;;;4999155;28;20057;-82
2021/10/02 13:35:53;;;;;;;5.10;2.80;;;;;;;;;;4997965;28;20069;-81
2021/10/02 13:38:40;;;;;;;4.97;3.50;;;;;;;;;;4998453;28;20109;-83
2021/10/02 13:41:30;;;;;;;3.97;2.65;;;;;;;;;;4987307;28;20045;-81
2021/10/02 13:44:28;;;;;;;4.13;2.55;;;;;;;;;;4998854;28;20648;-81
2021/10/02 13:47:19;;;;;;;4.70;3.03;;;;;;;;;;4996081;28;20046;-82
2021/10/02 13:50:05;;;;;;;4.22;2.97;;;;;;;;;;4998867;28;20041;-81
2021/10/02 13:52:51;;;;;;;4.95;3.30;;;;;;;;;;5005025;28;20041;-82
2021/10/02 13:55:36;;;;;;;3.95;2.80;;;;;;;;;;5011871;28;20073;-82
2021/10/02 13:58:21;;;;;;;6.70;3.33;;;;;;;;;;5000936;28;20033;-82
2021/10/02 14:01:07;;;;;;;3.78;3.03;;;;;;;;;;4999436;28;20029;-82
2021/10/02 14:03:52;;;;;;;3.83;3.22;;;;;;;;;;5002668;28;20725;-82
2021/10/02 14:06:37;;;;;;;5.35;3.45;;;;;;;;;;5005283;28;20424;-82
2021/10/02 14:09:25;;;;;;;5.30;3.25;;;;;;;;;;4999355;28;20025;-83
2021/10/02 14:12:14;;;;;;;5.38;3.50;;;;;;;;;;4996871;28;20045;-82
2021/10/02 14:14:59;;;;;;;3.93;2.63;;;;;;;;;;5002838;28;20029;-83
2021/10/02 14:17:46;;;;;;;4.47;2.70;;;;;;;;;;5004909;28;20080;-82
2021/10/02 14:20:32;;;;;;;4.80;3.13;;;;;;;;;;5016999;28;20030;-82
2021/10/02 14:23:18;;;;;;;4.43;3.20;;;;;;;;;;4999628;28;20018;-82
2021/10/02 14:26:03;;;;;;;5.40;3.33;;;;;;;;;;4998238;28;20417;-82
2021/10/02 14:28:49;;;;;;;6.57;3.42;;;;;;;;;;5003921;28;20059;-82
2021/10/02 14:31:34;;;;;;;5.45;3.35;;;;;;;;;;5004912;28;20025;-82
2021/10/02 14:34:19;;;;;;;6.70;3.58;;;;;;;;;;5011010;28;20034;-82
2021/10/02 14:37:04;;;;;;;5.90;3.17;;;;;;;;;;5012304;28;20024;-82
2021/10/02 14:39:51;;;;;;;6.05;3.50;;;;;;;;;;5000755;28;20025;-82
2021/10/02 14:42:36;;;;;;;6.85;3.78;;;;;;;;;;5002226;28;20025;-82
2021/10/02 14:45:25;;;;;;;5.57;4.03;;;;;;;;;;5000595;28;20030;-82
2021/10/02 14:48:11;;;;;;;7.70;3.88;;;;;;;;;;4998250;28;20080;-83
2021/10/02 14:50:56;;;;;;;7.18;3.63;;;;;;;;;;5000166;28;20527;-82
2021/10/02 14:53:43;;;;;;;6.60;3.55;;;;;;;;;;4994530;28;20463;-82
2021/10/02 14:56:29;;;;;;;4.78;3.60;;;;;;;;;;5005375;28;20026;-82
2021/10/02 14:59:16;;;;;;;5.10;3.70;;;;;;;;;;5000867;28;20017;-82
2021/10/02 15:02:02;;;;;;;7.55;3.40;;;;;;;;;;4999619;28;20075;-82
2021/10/02 15:04:48;;;;;;;4.88;3.33;;;;;;;;;;5001232;28;20034;-82
2021/10/02 15:07:34;;;;;;;7.53;3.53;;;;;;;;;;4999278;28;20026;-83
2021/10/02 15:10:20;;;;;;;8.50;3.95;;;;;;;;;;4999462;28;20065;-83
2021/10/02 15:13:07;;;;;;;6.18;4.35;;;;;;;;;;4999542;28;20038;-83
2021/10/02 15:15:55;;;;;;;6.57;4.00;;;;;;;;;;4996969;28;20029;-86
2021/10/02 15:18:41;;;;;;;7.30;4.32;;;;;;;;;;5003064;28;20026;-87
2021/10/02 15:21:27;;;;;;;6.25;3.90;;;;;;;;;;4991335;28;20022;-87
2021/10/02 15:24:13;;;;;;;7.07;4.32;;;;;;;;;;5000925;28;20036;-87
2021/10/02 15:27:02;;;;;;;5.30;3.78;;;;;;;;;;5003169;28;20034;-87
2021/10/02 15:29:47;;;;;;;8.15;4.80;;;;;;;;;;4999376;28;20036;-85
2021/10/02 15:32:33;;;;;;;8.13;4.78;;;;;;;;;;5005830;28;20033;-86
2021/10/02 15:35:19;;;;;;;6.97;3.80;;;;;;;;;;5002192;28;20029;-85
2021/10/02 15:38:05;;;;;;;8.35;4.13;;;;;;;;;;4997526;28;20026;-84
2021/10/02 15:40:50;;;;;;;6.95;3.55;;;;;;;;;;5004182;28;20017;-86
2021/10/02 15:43:35;;;;;;;5.55;3.58;;;;;;;;;;5004743;28;20042;-85
2021/10/02 15:46:21;;;;;;;7.68;3.78;;;;;;;;;;4995997;28;20040;-84
2021/10/02 15:49:08;;;;;;;6.88;4.00;;;;;;;;;;4998694;28;20022;-85
2021/10/02 15:51:55;;;;;;;8.35;3.95;;;;;;;;;;5000985;28;20484;-85
2021/10/02 15:54:41;;;;;;;5.32;3.92;;;;;;;;;;4998406;28;20048;-86
2021/10/02 15:57:28;;;;;;;6.53;3.80;;;;;;;;;;5003172;28;20042;-86
2021/10/02 16:00:13;;;;;;;9.77;3.40;;;;;;;;;;5000840;28;20039;-85
2021/10/02 16:03:14;;;;;;;6.30;3.92;;;;;;;;;;5002853;28;20033;-85
2021/10/02 16:06:00;;;;;;;7.15;4.75;;;;;;;;;;4996370;28;20045;-86
2021/10/02 16:08:47;;;;;;;8.57;5.35;;;;;;;;;;4998862;28;20510;-85
2021/10/02 16:11:33;;;;;;;8.80;4.55;;;;;;;;;;4993702;28;20053;-85
2021/10/02 16:14:21;;;;;;;8.30;4.55;;;;;;;;;;5000644;28;20037;-85
2021/10/02 16:17:07;;;;;;;10.93;5.00;;;;;;;;;;4996780;28;20033;-86
2021/10/02 16:19:53;;;;;;;6.70;4.47;;;;;;;;;;4999758;28;20432;-85
2021/10/02 16:22:39;;;;;;;7.30;4.55;;;;;;;;;;4992572;28;20026;-85
2021/10/02 16:25:26;;;;;;;6.72;4.00;;;;;;;;;;5014096;28;20029;-83
2021/10/02 16:28:11;;;;;;;7.07;4.55;;;;;;;;;;5000514;28;20057;-82
2021/10/02 16:30:59;;;;;;;8.85;5.25;;;;;;;;;;4994525;28;20065;-85
2021/10/02 16:33:44;;;;;;;12.27;5.07;;;;;;;;;;5003358;28;20444;-81
2021/10/02 16:36:32;;;;;;;8.05;4.35;;;;;;;;;;5002577;28;20017;-81
2021/10/02 16:39:18;;;;;;;7.82;5.43;;;;;;;;;;5002362;28;20021;-81
2021/10/02 16:42:03;;;;;;;8.20;6.00;;;;;;;;;;4996427;28;20022;-80
2021/10/02 16:44:48;;;;;;;8.65;5.28;;;;;;;;;;4993923;28;20033;-80
2021/10/02 16:47:34;;;;;;;8.13;4.95;;;;;;;;;;4998657;28;20452;-82
2021/10/02 16:50:21;;;;;;;7.35;5.22;;;;;;;;;;5000211;28;20073;-81
2021/10/02 16:53:10;;;;;;;9.27;5.60;;;;;;;;;;4999193;28;20101;-83
2021/10/02 16:55:56;;;;;;;8.13;5.53;;;;;;;;;;5000267;28;20091;-81
2021/10/02 16:58:41;;;;;;;11.68;5.63;;;;;;;;;;4999405;28;20080;-82
2021/10/02 17:01:26;;;;;;;9.27;5.93;;;;;;;;;;5003466;28;20076;-83
2021/10/02 17:04:12;;;;;;;10.00;5.72;;;;;;;;;;5007408;28;20038;-83
2021/10/02 17:06:57;;;;;;;10.60;6.32;;;;;;;;;;5015649;28;20041;-84
2021/10/02 17:09:42;;;;;;;9.07;6.28;;;;;;;;;;5009152;28;20022;-84
2021/10/02 17:12:28;;;;;;;9.73;5.68;;;;;;;;;;5013663;28;20052;-84
2021/10/02 17:15:14;;;;;;;9.48;5.72;;;;;;;;;;5005990;28;20075;-82
2021/10/02 17:18:01;;;;;;;7.63;5.00;;;;;;;;;;4998840;28;20044;-82
2021/10/02 17:20:50;;;;;;;8.30;5.85;;;;;;;;;;4989644;28;20075;-83
2021/10/02 17:23:39;;;;;;;7.90;5.05;;;;;;;;;;5016726;28;20022;-83
2021/10/02 17:26:24;;;;;;;8.13;5.43;;;;;;;;;;4998543;28;20113;-83
2021/10/02 17:29:10;;;;;;;12.32;5.40;;;;;;;;;;4987394;28;20109;-82
2021/10/02 17:31:55;;;;;;;7.75;5.40;;;;;;;;;;4997666;28;20615;-83
2021/10/02 17:34:40;;;;;;;9.73;5.82;;;;;;;;;;4994224;28;20033;-83